sensor_id;sensor_type;location;lat;lon;timestamp;P1;durP1;ratioP1;P2;durP2;ratioP2
2009;SDS011;1008;47.404;8.502;2023-09-18T00:00:03;4.50;;;3.53;;
2009;SDS011;1008;47.404;8.502;2023-09-18T00:02:33;5.23;;;3.70;;
2009;SDS011;1008;47.404;8.502;2023-09-18T00:05:00;5.30;;;3.57;;
2009;SDS011;1008;47.404;8.502;2023-09-18T00:07:27;5.57;;;3.30;;
2009;SDS011;1008;47.404;8.502;2023-09-18T00:09:53;4.10;;;3.40;;
2009;SDS011;1008;47.404;8.502;2023-09-18T00:12:20;6.73;;;3.40;;
2009;SDS011;1008;47.404;8.502;2023-09-18T00:14:49;4.60;;;3.37;;
2009;SDS011;1008;47.404;8.502;2023-09-18T00:17:15;4.90;;;3.73;;
2009;SDS011;1008;47.404;8.502;2023-09-18T00:19:44;6.80;;;3.40;;
2009;SDS011;1008;47.404;8.502;2023-09-18T00:22:11;5.47;;;3.50;;
2009;SDS011;1008;47.404;8.502;2023-09-18T00:24:37;4.23;;;3.70;;
2009;SDS011;1008;47.404;8.502;2023-09-18T00:27:04;4.83;;;3.70;;
2009;SDS011;1008;47.404;8.502;2023-09-18T00:29:31;5.67;;;3.27;;
2009;SDS011;1008;47.404;8.502;2023-09-18T00:31:59;4.40;;;3.90;;
2009;SDS011;1008;47.404;8.502;2023-09-18T00:34:25;4.17;;;3.43;;
2009;SDS011;1008;47.404;8.502;2023-09-18T00:36:52;5.10;;;3.30;;
2009;SDS011;1008;47.404;8.502;2023-09-18T00:39:19;5.80;;;3.50;;
2009;SDS011;1008;47.404;8.502;2023-09-18T00:41:45;3.57;;;3.07;;
2009;SDS011;1008;47.404;8.502;2023-09-18T00:44:14;3.83;;;2.90;;
2009;SDS011;1008;47.404;8.502;2023-09-18T00:46:41;3.63;;;3.00;;
2009;SDS011;1008;47.404;8.502;2023-09-18T00:49:09;10.80;;;4.13;;
2009;SDS011;1008;47.404;8.502;2023-09-18T00:51:37;4.73;;;3.07;;
2009;SDS011;1008;47.404;8.502;2023-09-18T00:54:04;6.30;;;3.83;;
2009;SDS011;1008;47.404;8.502;2023-09-18T00:56:32;4.70;;;3.20;;
2009;SDS011;1008;47.404;8.502;2023-09-18T00:58:59;4.80;;;2.93;;
2009;SDS011;1008;47.404;8.502;2023-09-18T01:01:28;5.73;;;3.57;;
2009;SDS011;1008;47.404;8.502;2023-09-18T01:03:55;6.30;;;3.07;;
2009;SDS011;1008;47.404;8.502;2023-09-18T01:06:24;5.47;;;2.80;;
2009;SDS011;1008;47.404;8.502;2023-09-18T01:08:55;3.47;;;3.17;;
2009;SDS011;1008;47.404;8.502;2023-09-18T01:11:24;6.40;;;3.80;;
2009;SDS011;1008;47.404;8.502;2023-09-18T01:13:59;5.40;;;3.33;;
2009;SDS011;1008;47.404;8.502;2023-09-18T01:16:39;4.63;;;3.00;;
2009;SDS011;1008;47.404;8.502;2023-09-18T01:19:11;5.03;;;3.23;;
2009;SDS011;1008;47.404;8.502;2023-09-18T01:21:39;4.20;;;3.30;;
2009;SDS011;1008;47.404;8.502;2023-09-18T01:24:07;9.07;;;3.50;;
2009;SDS011;1008;47.404;8.502;2023-09-18T01:26:33;6.90;;;3.97;;
2009;SDS011;1008;47.404;8.502;2023-09-18T01:29:00;8.70;;;3.43;;
2009;SDS011;1008;47.404;8.502;2023-09-18T01:31:27;3.93;;;3.40;;
2009;SDS011;1008;47.404;8.502;2023-09-18T01:33:54;4.70;;;3.63;;
2009;SDS011;1008;47.404;8.502;2023-09-18T01:36:22;6.50;;;2.80;;
2009;SDS011;1008;47.404;8.502;2023-09-18T01:38:49;5.10;;;3.33;;
2009;SDS011;1008;47.404;8.502;2023-09-18T01:41:18;3.93;;;2.83;;
2009;SDS011;1008;47.404;8.502;2023-09-18T01:43:45;6.77;;;3.30;;
2009;SDS011;1008;47.404;8.502;2023-09-18T01:46:12;4.93;;;2.87;;
2009;SDS011;1008;47.404;8.502;2023-09-18T01:48:44;4.40;;;3.27;;
2009;SDS011;1008;47.404;8.502;2023-09-18T01:51:13;4.27;;;2.77;;
2009;SDS011;1008;47.404;8.502;2023-09-18T01:53:39;6.53;;;3.50;;
2009;SDS011;1008;47.404;8.502;2023-09-18T01:56:06;3.60;;;3.00;;
2009;SDS011;1008;47.404;8.502;2023-09-18T01:58:34;4.30;;;3.30;;
2009;SDS011;1008;47.404;8.502;2023-09-18T02:01:01;3.97;;;3.10;;
2009;SDS011;1008;47.404;8.502;2023-09-18T02:03:29;4.90;;;2.93;;
2009;SDS011;1008;47.404;8.502;2023-09-18T02:05:56;3.67;;;2.50;;
2009;SDS011;1008;47.404;8.502;2023-09-18T02:08:23;5.03;;;2.93;;
2009;SDS011;1008;47.404;8.502;2023-09-18T02:10:49;4.90;;;3.00;;
2009;SDS011;1008;47.404;8.502;2023-09-18T02:13:16;5.83;;;2.90;;
2009;SDS011;1008;47.404;8.502;2023-09-18T02:15:45;5.23;;;2.77;;
2009;SDS011;1008;47.404;8.502;2023-09-18T02:18:12;4.90;;;3.30;;
2009;SDS011;1008;47.404;8.502;2023-09-18T02:20:40;5.10;;;3.37;;
2009;SDS011;1008;47.404;8.502;2023-09-18T02:23:09;4.13;;;3.30;;
2009;SDS011;1008;47.404;8.502;2023-09-18T02:25:36;11.63;;;3.70;;
2009;SDS011;1008;47.404;8.502;2023-09-18T02:28:02;4.30;;;3.13;;
2009;SDS011;1008;47.404;8.502;2023-09-18T02:30:30;3.83;;;3.00;;
2009;SDS011;1008;47.404;8.502;2023-09-18T02:32:58;6.10;;;3.20;;
2009;SDS011;1008;47.404;8.502;2023-09-18T02:35:24;4.50;;;3.27;;
2009;SDS011;1008;47.404;8.502;2023-09-18T02:37:51;5.53;;;3.93;;
2009;SDS011;1008;47.404;8.502;2023-09-18T02:40:18;10.20;;;3.40;;
2009;SDS011;1008;47.404;8.502;2023-09-18T02:42:45;4.50;;;3.97;;
2009;SDS011;1008;47.404;8.502;2023-09-18T02:45:11;4.47;;;3.87;;
2009;SDS011;1008;47.404;8.502;2023-09-18T02:47:38;5.33;;;3.87;;
2009;SDS011;1008;47.404;8.502;2023-09-18T02:50:08;4.93;;;4.00;;
2009;SDS011;1008;47.404;8.502;2023-09-18T02:52:36;6.10;;;4.07;;
2009;SDS011;1008;47.404;8.502;2023-09-18T02:55:03;8.10;;;4.10;;
2009;SDS011;1008;47.404;8.502;2023-09-18T02:57:30;5.13;;;3.90;;
2009;SDS011;1008;47.404;8.502;2023-09-18T02:59:57;4.90;;;4.13;;
2009;SDS011;1008;47.404;8.502;2023-09-18T03:02:23;6.30;;;4.40;;
2009;SDS011;1008;47.404;8.502;2023-09-18T03:04:50;6.63;;;4.27;;
2009;SDS011;1008;47.404;8.502;2023-09-18T03:07:18;7.13;;;3.80;;
2009;SDS011;1008;47.404;8.502;2023-09-18T03:09:45;7.83;;;3.37;;
2009;SDS011;1008;47.404;8.502;2023-09-18T03:12:11;6.53;;;3.60;;
2009;SDS011;1008;47.404;8.502;2023-09-18T03:14:38;8.17;;;3.10;;
2009;SDS011;1008;47.404;8.502;2023-09-18T03:17:05;9.20;;;3.57;;
2009;SDS011;1008;47.404;8.502;2023-09-18T03:19:31;6.50;;;3.33;;
2009;SDS011;1008;47.404;8.502;2023-09-18T03:21:58;6.90;;;3.80;;
2009;SDS011;1008;47.404;8.502;2023-09-18T03:24:26;6.27;;;3.60;;
2009;SDS011;1008;47.404;8.502;2023-09-18T03:26:53;6.80;;;3.17;;
2009;SDS011;1008;47.404;8.502;2023-09-18T03:29:19;6.33;;;4.00;;
2009;SDS011;1008;47.404;8.502;2023-09-18T03:31:46;4.83;;;3.37;;
2009;SDS011;1008;47.404;8.502;2023-09-18T03:34:13;7.47;;;3.53;;
2009;SDS011;1008;47.404;8.502;2023-09-18T03:36:39;5.43;;;3.00;;
2009;SDS011;1008;47.404;8.502;2023-09-18T03:39:06;6.47;;;3.03;;
2009;SDS011;1008;47.404;8.502;2023-09-18T03:41:36;6.67;;;3.00;;
2009;SDS011;1008;47.404;8.502;2023-09-18T03:44:03;6.20;;;3.20;;
2009;SDS011;1008;47.404;8.502;2023-09-18T03:46:30;4.30;;;2.90;;
2009;SDS011;1008;47.404;8.502;2023-09-18T03:48:57;3.60;;;2.57;;
2009;SDS011;1008;47.404;8.502;2023-09-18T03:51:24;9.37;;;3.00;;
2009;SDS011;1008;47.404;8.502;2023-09-18T03:53:50;6.27;;;2.70;;
2009;SDS011;1008;47.404;8.502;2023-09-18T03:56:17;4.33;;;2.70;;
2009;SDS011;1008;47.404;8.502;2023-09-18T03:58:45;6.47;;;2.60;;
2009;SDS011;1008;47.404;8.502;2023-09-18T04:01:14;8.40;;;2.97;;
2009;SDS011;1008;47.404;8.502;2023-09-18T04:03:41;5.90;;;2.73;;
2009;SDS011;1008;47.404;8.502;2023-09-18T04:06:07;3.80;;;2.47;;
2009;SDS011;1008;47.404;8.502;2023-09-18T04:08:34;8.70;;;2.87;;
2009;SDS011;1008;47.404;8.502;2023-09-18T04:11:01;5.43;;;2.90;;
2009;SDS011;1008;47.404;8.502;2023-09-18T04:13:29;4.63;;;2.50;;
2009;SDS011;1008;47.404;8.502;2023-09-18T04:15:57;6.23;;;3.00;;
2009;SDS011;1008;47.404;8.502;2023-09-18T04:18:25;4.80;;;2.77;;
2009;SDS011;1008;47.404;8.502;2023-09-18T04:20:53;7.97;;;2.77;;
2009;SDS011;1008;47.404;8.502;2023-09-18T04:23:20;5.83;;;2.50;;
2009;SDS011;1008;47.404;8.502;2023-09-18T04:25:48;6.13;;;2.67;;
2009;SDS011;1008;47.404;8.502;2023-09-18T04:28:15;7.20;;;3.47;;
2009;SDS011;1008;47.404;8.502;2023-09-18T04:30:43;5.93;;;3.87;;
2009;SDS011;1008;47.404;8.502;2023-09-18T04:33:11;5.77;;;2.90;;
2009;SDS011;1008;47.404;8.502;2023-09-18T04:35:38;8.83;;;3.30;;
2009;SDS011;1008;47.404;8.502;2023-09-18T04:38:06;8.10;;;2.57;;
2009;SDS011;1008;47.404;8.502;2023-09-18T04:40:33;2.83;;;2.20;;
2009;SDS011;1008;47.404;8.502;2023-09-18T04:43:00;3.77;;;2.33;;
2009;SDS011;1008;47.404;8.502;2023-09-18T04:45:27;7.83;;;2.50;;
2009;SDS011;1008;47.404;8.502;2023-09-18T04:47:53;3.80;;;2.20;;
2009;SDS011;1008;47.404;8.502;2023-09-18T04:50:22;5.33;;;2.73;;
2009;SDS011;1008;47.404;8.502;2023-09-18T04:52:51;3.83;;;2.90;;
2009;SDS011;1008;47.404;8.502;2023-09-18T04:55:19;8.77;;;3.40;;
2009;SDS011;1008;47.404;8.502;2023-09-18T04:57:46;4.73;;;3.30;;
2009;SDS011;1008;47.404;8.502;2023-09-18T05:00:14;9.03;;;3.67;;
2009;SDS011;1008;47.404;8.502;2023-09-18T05:02:41;5.93;;;3.50;;
2009;SDS011;1008;47.404;8.502;2023-09-18T05:05:08;7.43;;;4.23;;
2009;SDS011;1008;47.404;8.502;2023-09-18T05:07:36;6.63;;;4.00;;
2009;SDS011;1008;47.404;8.502;2023-09-18T05:10:03;5.40;;;3.27;;
2009;SDS011;1008;47.404;8.502;2023-09-18T05:12:30;5.93;;;3.43;;
2009;SDS011;1008;47.404;8.502;2023-09-18T05:14:57;7.33;;;3.60;;
2009;SDS011;1008;47.404;8.502;2023-09-18T05:17:39;5.90;;;3.47;;
2009;SDS011;1008;47.404;8.502;2023-09-18T05:20:07;5.13;;;3.37;;
2009;SDS011;1008;47.404;8.502;2023-09-18T05:22:38;6.43;;;3.50;;
2009;SDS011;1008;47.404;8.502;2023-09-18T05:25:04;7.00;;;3.53;;
2009;SDS011;1008;47.404;8.502;2023-09-18T05:27:31;4.83;;;2.73;;
2009;SDS011;1008;47.404;8.502;2023-09-18T05:29:58;7.50;;;3.40;;
2009;SDS011;1008;47.404;8.502;2023-09-18T05:32:25;10.47;;;3.03;;
2009;SDS011;1008;47.404;8.502;2023-09-18T05:34:51;5.17;;;3.37;;
2009;SDS011;1008;47.404;8.502;2023-09-18T05:37:18;3.87;;;3.03;;
2009;SDS011;1008;47.404;8.502;2023-09-18T05:39:47;5.67;;;3.13;;
2009;SDS011;1008;47.404;8.502;2023-09-18T05:42:13;7.07;;;3.10;;
2009;SDS011;1008;47.404;8.502;2023-09-18T05:44:41;6.37;;;3.07;;
2009;SDS011;1008;47.404;8.502;2023-09-18T05:47:07;4.73;;;3.53;;
2009;SDS011;1008;47.404;8.502;2023-09-18T05:49:34;7.20;;;3.50;;
2009;SDS011;1008;47.404;8.502;2023-09-18T05:52:01;6.13;;;3.07;;
2009;SDS011;1008;47.404;8.502;2023-09-18T05:54:27;5.53;;;3.00;;
2009;SDS011;1008;47.404;8.502;2023-09-18T05:56:55;9.00;;;3.20;;
2009;SDS011;1008;47.404;8.502;2023-09-18T05:59:22;5.13;;;2.90;;
2009;SDS011;1008;47.404;8.502;2023-09-18T06:01:49;2.60;;;2.33;;
2009;SDS011;1008;47.404;8.502;2023-09-18T06:04:16;6.30;;;2.90;;
2009;SDS011;1008;47.404;8.502;2023-09-18T06:06:42;5.40;;;3.20;;
2009;SDS011;1008;47.404;8.502;2023-09-18T06:09:09;4.80;;;3.00;;
2009;SDS011;1008;47.404;8.502;2023-09-18T06:11:36;5.43;;;3.40;;
2009;SDS011;1008;47.404;8.502;2023-09-18T06:14:04;4.27;;;2.90;;
2009;SDS011;1008;47.404;8.502;2023-09-18T06:16:31;6.23;;;3.20;;
2009;SDS011;1008;47.404;8.502;2023-09-18T06:18:57;4.97;;;3.00;;
2009;SDS011;1008;47.404;8.502;2023-09-18T06:21:25;11.90;;;2.87;;
2009;SDS011;1008;47.404;8.502;2023-09-18T06:23:51;5.63;;;2.70;;
2009;SDS011;1008;47.404;8.502;2023-09-18T06:26:18;8.50;;;3.67;;
2009;SDS011;1008;47.404;8.502;2023-09-18T06:28:46;8.27;;;3.33;;
2009;SDS011;1008;47.404;8.502;2023-09-18T06:31:14;6.77;;;3.10;;
2009;SDS011;1008;47.404;8.502;2023-09-18T06:33:41;6.03;;;2.80;;
2009;SDS011;1008;47.404;8.502;2023-09-18T06:36:08;10.37;;;2.77;;
2009;SDS011;1008;47.404;8.502;2023-09-18T06:38:35;10.57;;;2.90;;
2009;SDS011;1008;47.404;8.502;2023-09-18T06:41:01;6.00;;;2.43;;
2009;SDS011;1008;47.404;8.502;2023-09-18T06:43:28;5.70;;;2.97;;
2009;SDS011;1008;47.404;8.502;2023-09-18T06:45:55;8.63;;;3.17;;
2009;SDS011;1008;47.404;8.502;2023-09-18T06:48:24;7.33;;;3.30;;
2009;SDS011;1008;47.404;8.502;2023-09-18T06:50:51;8.90;;;3.53;;
2009;SDS011;1008;47.404;8.502;2023-09-18T06:53:17;5.40;;;3.20;;
2009;SDS011;1008;47.404;8.502;2023-09-18T06:55:44;6.30;;;3.10;;
2009;SDS011;1008;47.404;8.502;2023-09-18T06:58:11;10.20;;;3.87;;
2009;SDS011;1008;47.404;8.502;2023-09-18T07:00:37;5.47;;;3.13;;
2009;SDS011;1008;47.404;8.502;2023-09-18T07:03:04;8.37;;;3.23;;
2009;SDS011;1008;47.404;8.502;2023-09-18T07:05:32;7.37;;;3.50;;
2009;SDS011;1008;47.404;8.502;2023-09-18T07:07:59;5.17;;;3.23;;
2009;SDS011;1008;47.404;8.502;2023-09-18T07:10:26;12.40;;;3.73;;
2009;SDS011;1008;47.404;8.502;2023-09-18T07:12:52;10.93;;;3.37;;
2009;SDS011;1008;47.404;8.502;2023-09-18T07:15:19;6.97;;;3.00;;
2009;SDS011;1008;47.404;8.502;2023-09-18T07:17:46;9.70;;;3.07;;
2009;SDS011;1008;47.404;8.502;2023-09-18T07:20:13;6.20;;;3.17;;
2009;SDS011;1008;47.404;8.502;2023-09-18T07:22:45;4.30;;;2.70;;
2009;SDS011;1008;47.404;8.502;2023-09-18T07:25:13;7.50;;;3.13;;
2009;SDS011;1008;47.404;8.502;2023-09-18T07:27:39;12.13;;;3.63;;
2009;SDS011;1008;47.404;8.502;2023-09-18T07:30:09;7.67;;;3.40;;
2009;SDS011;1008;47.404;8.502;2023-09-18T07:32:36;10.23;;;5.67;;
2009;SDS011;1008;47.404;8.502;2023-09-18T07:35:06;7.83;;;2.97;;
2009;SDS011;1008;47.404;8.502;2023-09-18T07:37:33;7.97;;;2.73;;
2009;SDS011;1008;47.404;8.502;2023-09-18T07:40:02;4.67;;;2.77;;
2009;SDS011;1008;47.404;8.502;2023-09-18T07:42:29;5.10;;;2.93;;
2009;SDS011;1008;47.404;8.502;2023-09-18T07:44:56;7.90;;;3.47;;
2009;SDS011;1008;47.404;8.502;2023-09-18T07:47:23;7.87;;;3.40;;
2009;SDS011;1008;47.404;8.502;2023-09-18T07:49:49;7.80;;;3.07;;
2009;SDS011;1008;47.404;8.502;2023-09-18T07:52:16;7.13;;;3.07;;
2009;SDS011;1008;47.404;8.502;2023-09-18T07:54:43;6.47;;;3.57;;
2009;SDS011;1008;47.404;8.502;2023-09-18T07:57:11;5.63;;;3.20;;
2009;SDS011;1008;47.404;8.502;2023-09-18T07:59:38;5.83;;;3.40;;
2009;SDS011;1008;47.404;8.502;2023-09-18T08:02:07;6.43;;;3.40;;
2009;SDS011;1008;47.404;8.502;2023-09-18T08:04:34;6.23;;;3.20;;
2009;SDS011;1008;47.404;8.502;2023-09-18T08:07:01;10.47;;;3.93;;
2009;SDS011;1008;47.404;8.502;2023-09-18T08:09:28;5.93;;;3.03;;
2009;SDS011;1008;47.404;8.502;2023-09-18T08:11:54;8.40;;;3.93;;
2009;SDS011;1008;47.404;8.502;2023-09-18T08:14:23;9.90;;;3.70;;
2009;SDS011;1008;47.404;8.502;2023-09-18T08:16:55;9.13;;;3.80;;
2009;SDS011;1008;47.404;8.502;2023-09-18T08:19:23;7.70;;;4.10;;
2009;SDS011;1008;47.404;8.502;2023-09-18T08:21:52;5.30;;;3.13;;
2009;SDS011;1008;47.404;8.502;2023-09-18T08:24:19;6.10;;;3.27;;
2009;SDS011;1008;47.404;8.502;2023-09-18T08:26:46;5.07;;;3.10;;
2009;SDS011;1008;47.404;8.502;2023-09-18T08:29:12;5.10;;;3.40;;
2009;SDS011;1008;47.404;8.502;2023-09-18T08:31:40;4.67;;;2.83;;
2009;SDS011;1008;47.404;8.502;2023-09-18T08:34:07;4.97;;;2.87;;
2009;SDS011;1008;47.404;8.502;2023-09-18T08:36:34;3.87;;;2.80;;
2009;SDS011;1008;47.404;8.502;2023-09-18T08:39:00;5.47;;;2.53;;
2009;SDS011;1008;47.404;8.502;2023-09-18T08:41:28;4.33;;;2.40;;
2009;SDS011;1008;47.404;8.502;2023-09-18T08:43:59;5.37;;;2.80;;
2009;SDS011;1008;47.404;8.502;2023-09-18T08:46:28;3.60;;;2.47;;
2009;SDS011;1008;47.404;8.502;2023-09-18T08:48:57;6.27;;;2.40;;
2009;SDS011;1008;47.404;8.502;2023-09-18T08:51:26;4.23;;;2.07;;
2009;SDS011;1008;47.404;8.502;2023-09-18T08:53:54;5.37;;;2.73;;
2009;SDS011;1008;47.404;8.502;2023-09-18T08:56:22;6.33;;;2.10;;
2009;SDS011;1008;47.404;8.502;2023-09-18T08:58:49;3.07;;;2.10;;
2009;SDS011;1008;47.404;8.502;2023-09-18T09:01:18;3.03;;;1.83;;
2009;SDS011;1008;47.404;8.502;2023-09-18T09:03:46;3.10;;;1.80;;
2009;SDS011;1008;47.404;8.502;2023-09-18T09:06:14;6.57;;;2.20;;
2009;SDS011;1008;47.404;8.502;2023-09-18T09:08:41;2.70;;;1.83;;
2009;SDS011;1008;47.404;8.502;2023-09-18T09:11:08;3.70;;;2.00;;
2009;SDS011;1008;47.404;8.502;2023-09-18T09:13:35;3.87;;;1.70;;
2009;SDS011;1008;47.404;8.502;2023-09-18T09:16:02;2.20;;;1.60;;
2009;SDS011;1008;47.404;8.502;2023-09-18T09:18:29;3.20;;;1.53;;
2009;SDS011;1008;47.404;8.502;2023-09-18T09:20:58;2.50;;;1.70;;
2009;SDS011;1008;47.404;8.502;2023-09-18T09:23:28;2.80;;;1.73;;
2009;SDS011;1008;47.404;8.502;2023-09-18T09:26:11;2.77;;;1.27;;
2009;SDS011;1008;47.404;8.502;2023-09-18T09:28:39;4.60;;;2.37;;
2009;SDS011;1008;47.404;8.502;2023-09-18T09:31:08;3.50;;;1.53;;
2009;SDS011;1008;47.404;8.502;2023-09-18T09:33:35;1.57;;;1.40;;
2009;SDS011;1008;47.404;8.502;2023-09-18T09:36:05;3.40;;;1.63;;
2009;SDS011;1008;47.404;8.502;2023-09-18T09:38:34;2.93;;;1.97;;
2009;SDS011;1008;47.404;8.502;2023-09-18T09:41:02;2.73;;;1.60;;
2009;SDS011;1008;47.404;8.502;2023-09-18T09:43:32;4.17;;;1.60;;
2009;SDS011;1008;47.404;8.502;2023-09-18T09:45:59;3.20;;;1.60;;
2009;SDS011;1008;47.404;8.502;2023-09-18T09:48:26;3.00;;;1.83;;
2009;SDS011;1008;47.404;8.502;2023-09-18T09:50:57;2.30;;;1.43;;
2009;SDS011;1008;47.404;8.502;2023-09-18T09:56:12;2.90;;;1.67;;
2009;SDS011;1008;47.404;8.502;2023-09-18T09:58:39;3.10;;;1.67;;
2009;SDS011;1008;47.404;8.502;2023-09-18T10:01:09;1.90;;;1.50;;
2009;SDS011;1008;47.404;8.502;2023-09-18T10:03:42;3.53;;;1.53;;
2009;SDS011;1008;47.404;8.502;2023-09-18T10:06:10;1.97;;;1.50;;
2009;SDS011;1008;47.404;8.502;2023-09-18T10:08:38;6.40;;;1.27;;
2009;SDS011;1008;47.404;8.502;2023-09-18T10:11:07;2.20;;;1.50;;
2009;SDS011;1008;47.404;8.502;2023-09-18T10:13:36;2.43;;;1.50;;
2009;SDS011;1008;47.404;8.502;2023-09-18T10:16:11;2.80;;;1.57;;
2009;SDS011;1008;47.404;8.502;2023-09-18T10:18:42;2.63;;;1.30;;
2009;SDS011;1008;47.404;8.502;2023-09-18T10:21:19;2.80;;;1.47;;
2009;SDS011;1008;47.404;8.502;2023-09-18T10:23:58;1.90;;;1.37;;
2009;SDS011;1008;47.404;8.502;2023-09-18T10:26:33;1.33;;;1.23;;
2009;SDS011;1008;47.404;8.502;2023-09-18T10:29:05;3.63;;;1.30;;
2009;SDS011;1008;47.404;8.502;2023-09-18T10:31:36;1.77;;;1.20;;
2009;SDS011;1008;47.404;8.502;2023-09-18T10:34:06;2.70;;;1.77;;
2009;SDS011;1008;47.404;8.502;2023-09-18T10:36:33;4.57;;;1.87;;
2009;SDS011;1008;47.404;8.502;2023-09-18T10:39:00;2.00;;;1.40;;
2009;SDS011;1008;47.404;8.502;2023-09-18T10:41:34;2.80;;;1.40;;
2009;SDS011;1008;47.404;8.502;2023-09-18T10:44:02;1.23;;;1.13;;
2009;SDS011;1008;47.404;8.502;2023-09-18T10:46:30;2.03;;;1.37;;
2009;SDS011;1008;47.404;8.502;2023-09-18T10:48:58;2.40;;;1.47;;
2009;SDS011;1008;47.404;8.502;2023-09-18T10:51:25;3.27;;;1.40;;
2009;SDS011;1008;47.404;8.502;2023-09-18T10:53:52;1.83;;;1.50;;
2009;SDS011;1008;47.404;8.502;2023-09-18T10:56:22;3.47;;;1.37;;
2009;SDS011;1008;47.404;8.502;2023-09-18T10:58:56;4.43;;;1.50;;
2009;SDS011;1008;47.404;8.502;2023-09-18T11:01:25;2.93;;;1.40;;
2009;SDS011;1008;47.404;8.502;2023-09-18T11:03:57;2.23;;;1.60;;
2009;SDS011;1008;47.404;8.502;2023-09-18T11:06:26;1.53;;;1.27;;
2009;SDS011;1008;47.404;8.502;2023-09-18T11:08:58;2.60;;;1.40;;
2009;SDS011;1008;47.404;8.502;2023-09-18T11:11:29;2.50;;;1.40;;
2009;SDS011;1008;47.404;8.502;2023-09-18T11:13:59;3.50;;;1.13;;
2009;SDS011;1008;47.404;8.502;2023-09-18T11:16:33;3.70;;;1.40;;
2009;SDS011;1008;47.404;8.502;2023-09-18T11:19:10;2.67;;;1.30;;
2009;SDS011;1008;47.404;8.502;2023-09-18T11:21:38;2.30;;;1.30;;
2009;SDS011;1008;47.404;8.502;2023-09-18T11:24:06;2.27;;;1.30;;
2009;SDS011;1008;47.404;8.502;2023-09-18T11:26:36;2.03;;;1.13;;
2009;SDS011;1008;47.404;8.502;2023-09-18T11:29:05;4.83;;;1.30;;
2009;SDS011;1008;47.404;8.502;2023-09-18T11:31:44;1.20;;;0.93;;
2009;SDS011;1008;47.404;8.502;2023-09-18T11:34:13;3.00;;;1.30;;
2009;SDS011;1008;47.404;8.502;2023-09-18T11:36:40;1.50;;;1.10;;
2009;SDS011;1008;47.404;8.502;2023-09-18T11:39:07;1.50;;;1.40;;
2009;SDS011;1008;47.404;8.502;2023-09-18T11:41:36;2.53;;;1.20;;
2009;SDS011;1008;47.404;8.502;2023-09-18T11:47:06;2.60;;;1.10;;
2009;SDS011;1008;47.404;8.502;2023-09-18T11:49:37;1.87;;;1.37;;
2009;SDS011;1008;47.404;8.502;2023-09-18T11:52:06;2.10;;;1.30;;
2009;SDS011;1008;47.404;8.502;2023-09-18T11:54:34;2.80;;;1.70;;
2009;SDS011;1008;47.404;8.502;2023-09-18T11:57:04;1.57;;;1.20;;
2009;SDS011;1008;47.404;8.502;2023-09-18T11:59:37;1.73;;;1.57;;
2009;SDS011;1008;47.404;8.502;2023-09-18T12:02:04;2.33;;;1.40;;
2009;SDS011;1008;47.404;8.502;2023-09-18T12:04:33;2.67;;;1.47;;
2009;SDS011;1008;47.404;8.502;2023-09-18T12:07:00;2.00;;;1.63;;
2009;SDS011;1008;47.404;8.502;2023-09-18T12:09:28;1.90;;;1.40;;
2009;SDS011;1008;47.404;8.502;2023-09-18T12:11:56;2.40;;;1.33;;
2009;SDS011;1008;47.404;8.502;2023-09-18T12:14:29;2.20;;;1.37;;
2009;SDS011;1008;47.404;8.502;2023-09-18T12:16:58;2.70;;;1.40;;
2009;SDS011;1008;47.404;8.502;2023-09-18T12:19:25;2.20;;;1.60;;
2009;SDS011;1008;47.404;8.502;2023-09-18T12:21:52;2.50;;;1.30;;
2009;SDS011;1008;47.404;8.502;2023-09-18T12:24:20;2.03;;;1.60;;
2009;SDS011;1008;47.404;8.502;2023-09-18T12:26:48;3.10;;;1.60;;
2009;SDS011;1008;47.404;8.502;2023-09-18T12:29:15;1.63;;;1.47;;
2009;SDS011;1008;47.404;8.502;2023-09-18T12:31:42;4.30;;;1.40;;
2009;SDS011;1008;47.404;8.502;2023-09-18T12:34:14;4.53;;;1.73;;
2009;SDS011;1008;47.404;8.502;2023-09-18T12:36:42;2.63;;;1.47;;
2009;SDS011;1008;47.404;8.502;2023-09-18T12:39:12;1.73;;;1.50;;
2009;SDS011;1008;47.404;8.502;2023-09-18T12:41:41;2.17;;;1.40;;
2009;SDS011;1008;47.404;8.502;2023-09-18T12:44:09;4.40;;;1.73;;
2009;SDS011;1008;47.404;8.502;2023-09-18T12:46:36;2.40;;;1.77;;
2009;SDS011;1008;47.404;8.502;2023-09-18T12:49:20;2.33;;;1.73;;
2009;SDS011;1008;47.404;8.502;2023-09-18T12:51:57;5.27;;;1.90;;
2009;SDS011;1008;47.404;8.502;2023-09-18T12:54:39;1.60;;;1.50;;
2009;SDS011;1008;47.404;8.502;2023-09-18T12:57:08;1.60;;;1.40;;
2009;SDS011;1008;47.404;8.502;2023-09-18T12:59:36;1.60;;;1.30;;
2009;SDS011;1008;47.404;8.502;2023-09-18T13:02:03;2.10;;;1.60;;
2009;SDS011;1008;47.404;8.502;2023-09-18T13:04:32;1.47;;;1.10;;
2009;SDS011;1008;47.404;8.502;2023-09-18T13:07:10;1.57;;;1.20;;
2009;SDS011;1008;47.404;8.502;2023-09-18T13:09:37;1.90;;;1.30;;
2009;SDS011;1008;47.404;8.502;2023-09-18T13:12:05;1.53;;;1.00;;
2009;SDS011;1008;47.404;8.502;2023-09-18T13:17:24;1.73;;;1.13;;
2009;SDS011;1008;47.404;8.502;2023-09-18T13:19:52;1.63;;;1.20;;
2009;SDS011;1008;47.404;8.502;2023-09-18T13:22:22;1.20;;;0.90;;
2009;SDS011;1008;47.404;8.502;2023-09-18T13:24:54;1.93;;;1.40;;
2009;SDS011;1008;47.404;8.502;2023-09-18T13:27:21;1.43;;;1.20;;
2009;SDS011;1008;47.404;8.502;2023-09-18T13:29:49;1.60;;;1.40;;
2009;SDS011;1008;47.404;8.502;2023-09-18T13:32:15;2.53;;;1.20;;
2009;SDS011;1008;47.404;8.502;2023-09-18T13:34:42;1.60;;;1.20;;
2009;SDS011;1008;47.404;8.502;2023-09-18T13:37:11;1.40;;;1.23;;
2009;SDS011;1008;47.404;8.502;2023-09-18T13:39:39;1.20;;;0.97;;
2009;SDS011;1008;47.404;8.502;2023-09-18T13:42:05;1.20;;;1.00;;
2009;SDS011;1008;47.404;8.502;2023-09-18T13:44:32;1.83;;;1.20;;
2009;SDS011;1008;47.404;8.502;2023-09-18T13:47:00;1.83;;;1.20;;
2009;SDS011;1008;47.404;8.502;2023-09-18T13:49:27;1.67;;;1.10;;
2009;SDS011;1008;47.404;8.502;2023-09-18T13:51:53;1.63;;;1.10;;
2009;SDS011;1008;47.404;8.502;2023-09-18T13:54:23;1.60;;;1.23;;
2009;SDS011;1008;47.404;8.502;2023-09-18T13:56:49;1.43;;;1.20;;
2009;SDS011;1008;47.404;8.502;2023-09-18T13:59:16;1.47;;;1.00;;
2009;SDS011;1008;47.404;8.502;2023-09-18T14:01:43;2.43;;;1.07;;
2009;SDS011;1008;47.404;8.502;2023-09-18T14:04:09;2.40;;;1.10;;
2009;SDS011;1008;47.404;8.502;2023-09-18T14:06:36;1.50;;;1.30;;
2009;SDS011;1008;47.404;8.502;2023-09-18T14:09:03;2.80;;;1.30;;
2009;SDS011;1008;47.404;8.502;2023-09-18T14:11:32;2.13;;;1.43;;
2009;SDS011;1008;47.404;8.502;2023-09-18T14:14:02;2.00;;;1.47;;
2009;SDS011;1008;47.404;8.502;2023-09-18T14:16:29;1.87;;;1.40;;
2009;SDS011;1008;47.404;8.502;2023-09-18T14:18:58;2.10;;;1.47;;
2009;SDS011;1008;47.404;8.502;2023-09-18T14:21:25;1.80;;;1.23;;
2009;SDS011;1008;47.404;8.502;2023-09-18T14:23:54;5.20;;;1.47;;
2009;SDS011;1008;47.404;8.502;2023-09-18T14:26:20;1.27;;;1.10;;
2009;SDS011;1008;47.404;8.502;2023-09-18T14:28:48;1.47;;;1.00;;
2009;SDS011;1008;47.404;8.502;2023-09-18T14:31:16;1.27;;;1.03;;
2009;SDS011;1008;47.404;8.502;2023-09-18T14:33:42;1.30;;;1.10;;
2009;SDS011;1008;47.404;8.502;2023-09-18T14:36:09;2.00;;;1.30;;
2009;SDS011;1008;47.404;8.502;2023-09-18T14:38:36;1.50;;;1.00;;
2009;SDS011;1008;47.404;8.502;2023-09-18T14:41:02;1.30;;;1.10;;
2009;SDS011;1008;47.404;8.502;2023-09-18T14:43:32;1.10;;;1.00;;
2009;SDS011;1008;47.404;8.502;2023-09-18T14:46:00;2.20;;;1.23;;
2009;SDS011;1008;47.404;8.502;2023-09-18T14:48:26;2.40;;;1.33;;
2009;SDS011;1008;47.404;8.502;2023-09-18T14:50:55;2.30;;;1.40;;
2009;SDS011;1008;47.404;8.502;2023-09-18T14:53:23;2.23;;;1.50;;
2009;SDS011;1008;47.404;8.502;2023-09-18T14:55:49;2.80;;;1.67;;
2009;SDS011;1008;47.404;8.502;2023-09-18T14:58:16;3.17;;;1.77;;
2009;SDS011;1008;47.404;8.502;2023-09-18T15:00:47;2.20;;;1.77;;
2009;SDS011;1008;47.404;8.502;2023-09-18T15:03:15;4.80;;;2.40;;
2009;SDS011;1008;47.404;8.502;2023-09-18T15:05:41;4.47;;;1.70;;
2009;SDS011;1008;47.404;8.502;2023-09-18T15:08:08;4.23;;;1.60;;
2009;SDS011;1008;47.404;8.502;2023-09-18T15:10:35;2.57;;;1.40;;
2009;SDS011;1008;47.404;8.502;2023-09-18T15:13:02;2.03;;;1.70;;
2009;SDS011;1008;47.404;8.502;2023-09-18T15:15:28;8.03;;;2.10;;
2009;SDS011;1008;47.404;8.502;2023-09-18T15:17:56;3.50;;;1.53;;
2009;SDS011;1008;47.404;8.502;2023-09-18T15:20:24;1.70;;;1.60;;
2009;SDS011;1008;47.404;8.502;2023-09-18T15:22:51;2.20;;;1.50;;
2009;SDS011;1008;47.404;8.502;2023-09-18T15:25:20;2.60;;;1.80;;
2009;SDS011;1008;47.404;8.502;2023-09-18T15:27:47;2.23;;;1.60;;